Time;durP1;ratioP1;P1;durP2;ratioP2;P2;SDS_P1;SDS_P2;PMS_P1;PMS_P2;Temp;Humidity;BMP_temperature;BMP_pressure;BME280_temperature;BME280_humidity;BME280_pressure;Samples;Min_cycle;Max_cycle;Signal;HPM_P1;HPM_P2
2022/09/06 00:01:22;;;;;;;0.10;0.10;;;;;;;;;;5035848;28;20033;-86
2022/09/06 00:03:48;;;;;;;0.20;0.20;;;;;;;;;;5046853;28;20025;-85
2022/09/06 00:06:15;;;;;;;0.20;0.20;;;;;;;;;;5031861;28;20432;-84
2022/09/06 00:08:42;;;;;;;0.20;0.20;;;;;;;;;;5015885;28;20057;-85
2022/09/06 00:11:07;;;;;;;0.20;0.20;;;;;;;;;;5033545;28;20026;-87
2022/09/06 00:13:33;;;;;;;0.20;0.20;;;;;;;;;;5015478;28;20030;-82
2022/09/06 00:16:05;;;;;;;0.20;0.20;;;;;;;;;;5033461;28;20139;-85
2022/09/06 00:18:31;;;;;;;0.20;0.20;;;;;;;;;;5033250;28;20481;-84
2022/09/06 00:20:56;;;;;;;0.47;0.47;;;;;;;;;;5015844;28;20032;-83
2022/09/06 00:23:22;;;;;;;0.20;0.20;;;;;;;;;;5050691;28;20025;-86
2022/09/06 00:25:47;;;;;;;0.73;0.73;;;;;;;;;;5053164;28;20033;-81
2022/09/06 00:28:14;;;;;;;0.32;0.32;;;;;;;;;;5052669;28;20052;-79
2022/09/06 00:30:40;;;;;;;0.20;0.20;;;;;;;;;;5053244;28;20468;-83
2022/09/06 00:33:05;;;;;;;0.20;0.20;;;;;;;;;;5053632;28;20043;-86
2022/09/06 00:35:31;;;;;;;0.20;0.20;;;;;;;;;;5035261;28;20104;-84
2022/09/06 00:37:57;;;;;;;0.35;0.35;;;;;;;;;;5035203;28;20060;-84
2022/09/06 00:40:23;;;;;;;0.20;0.20;;;;;;;;;;5054410;28;20029;-85
2022/09/06 00:42:48;;;;;;;0.30;0.30;;;;;;;;;;5053317;28;20428;-85
2022/09/06 00:45:14;;;;;;;0.20;0.20;;;;;;;;;;5035248;28;20443;-81
2022/09/06 00:47:40;;;;;;;0.30;0.30;;;;;;;;;;5035166;28;20128;-84
2022/09/06 00:50:06;;;;;;;0.20;0.20;;;;;;;;;;5053089;28;20029;-82
2022/09/06 00:52:32;;;;;;;0.20;0.20;;;;;;;;;;5052920;28;20059;-82
2022/09/06 00:54:58;;;;;;;0.20;0.20;;;;;;;;;;5035083;28;20112;-87
2022/09/06 00:57:25;;;;;;;0.25;0.25;;;;;;;;;;5052691;28;20116;-85
2022/09/06 00:59:53;;;;;;;0.20;0.20;;;;;;;;;;5035213;28;20349;-89
2022/09/06 01:02:19;;;;;;;0.28;0.28;;;;;;;;;;5018610;28;20029;-80
2022/09/06 01:04:45;;;;;;;0.20;0.20;;;;;;;;;;5035343;28;20037;-79
2022/09/06 01:07:14;;;;;;;0.30;0.30;;;;;;;;;;5038491;28;20345;-80
2022/09/06 01:09:58;;;;;;;0.20;0.20;;;;;;;;;;5056579;28;20037;-79
2022/09/06 01:12:42;;;;;;;0.20;0.20;;;;;;;;;;5056931;28;20032;-80
2022/09/06 01:15:31;;;;;;;0.35;0.35;;;;;;;;;;5056811;28;20079;-80
2022/09/06 01:18:15;;;;;;;0.28;0.28;;;;;;;;;;5056374;28;20078;-80
2022/09/06 01:20:43;;;;;;;0.20;0.20;;;;;;;;;;5055674;28;20030;-79
2022/09/06 01:23:32;;;;;;;1.35;0.60;;;;;;;;;;5038481;28;20025;-79
2022/09/06 01:26:22;;;;;;;0.20;0.20;;;;;;;;;;5042754;28;20041;-79
2022/09/06 01:28:47;;;;;;;0.20;0.20;;;;;;;;;;5037363;28;20040;-79
2022/09/06 01:31:19;;;;;;;0.70;0.70;;;;;;;;;;5056395;28;20468;-79
2022/09/06 01:33:51;;;;;;;0.25;0.25;;;;;;;;;;5037695;28;20037;-79
2022/09/06 01:36:19;;;;;;;0.17;0.17;;;;;;;;;;5056014;28;20090;-80
2022/09/06 01:38:44;;;;;;;0.20;0.20;;;;;;;;;;5038267;28;20056;-81
2022/09/06 01:41:10;;;;;;;0.20;0.20;;;;;;;;;;5055762;28;20460;-81
2022/09/06 01:43:37;;;;;;;0.20;0.20;;;;;;;;;;5055840;28;20037;-81
2022/09/06 01:46:25;;;;;;;0.20;0.20;;;;;;;;;;5055765;28;20025;-80
2022/09/06 01:49:09;;;;;;;0.28;0.28;;;;;;;;;;5027596;28;20530;-80
2022/09/06 01:51:44;;;;;;;0.20;0.20;;;;;;;;;;5055548;28;20029;-80
2022/09/06 01:54:18;;;;;;;0.20;0.20;;;;;;;;;;5055285;28;20452;-80
2022/09/06 01:56:50;;;;;;;0.20;0.20;;;;;;;;;;5038114;28;20033;-79
2022/09/06 01:59:22;;;;;;;0.30;0.30;;;;;;;;;;5055480;28;20036;-79
2022/09/06 02:02:07;;;;;;;0.22;0.22;;;;;;;;;;5055122;28;20480;-80
2022/09/06 02:04:47;;;;;;;0.20;0.20;;;;;;;;;;5038282;28;20037;-80
2022/09/06 02:07:15;;;;;;;0.20;0.20;;;;;;;;;;5055975;28;20116;-87
2022/09/06 02:09:43;;;;;;;2.95;2.80;;;;;;;;;;5038950;28;20033;-79
2022/09/06 02:12:12;;;;;;;0.20;0.20;;;;;;;;;;5035218;28;20032;-77
2022/09/06 02:14:44;;;;;;;0.20;0.20;;;;;;;;;;5035213;28;20021;-80
2022/09/06 02:17:12;;;;;;;0.25;0.25;;;;;;;;;;5017205;28;20104;-80
2022/09/06 02:19:43;;;;;;;0.30;0.30;;;;;;;;;;5035164;28;20374;-80
2022/09/06 02:22:10;;;;;;;0.30;0.30;;;;;;;;;;5035335;28;20104;-80
2022/09/06 02:24:39;;;;;;;0.20;0.20;;;;;;;;;;5035091;28;20465;-80
2022/09/06 02:27:05;;;;;;;0.20;0.20;;;;;;;;;;5034998;28;20092;-80
2022/09/06 02:29:31;;;;;;;0.30;0.30;;;;;;;;;;5034797;28;20026;-80
2022/09/06 02:31:59;;;;;;;0.20;0.20;;;;;;;;;;5016398;28;20025;-79
2022/09/06 02:34:25;;;;;;;0.20;0.20;;;;;;;;;;5035396;28;20037;-78
2022/09/06 02:36:50;;;;;;;0.20;0.20;;;;;;;;;;5034967;28;20045;-80
2022/09/06 02:39:16;;;;;;;0.20;0.20;;;;;;;;;;5017055;28;20041;-80
2022/09/06 02:41:42;;;;;;;0.30;0.30;;;;;;;;;;5016991;28;20017;-81
2022/09/06 02:44:07;;;;;;;0.20;0.20;;;;;;;;;;5034661;28;20034;-78
2022/09/06 02:46:33;;;;;;;0.17;0.17;;;;;;;;;;5050754;28;20075;-77
2022/09/06 02:48:58;;;;;;;0.20;0.20;;;;;;;;;;5054857;28;20033;-78
2022/09/06 02:51:24;;;;;;;0.30;0.30;;;;;;;;;;5054677;28;20025;-77
2022/09/06 02:53:50;;;;;;;0.20;0.20;;;;;;;;;;5054585;28;20025;-81
2022/09/06 02:56:15;;;;;;;0.20;0.20;;;;;;;;;;5037036;28;20418;-81
2022/09/06 02:58:41;;;;;;;0.20;0.20;;;;;;;;;;5054258;28;20029;-81
2022/09/06 03:01:06;;;;;;;0.22;0.22;;;;;;;;;;5054852;28;20392;-86
2022/09/06 03:03:32;;;;;;;0.35;0.35;;;;;;;;;;5050403;28;20036;-87
2022/09/06 03:05:57;;;;;;;0.28;0.28;;;;;;;;;;5050668;28;20029;-88
2022/09/06 03:08:25;;;;;;;0.28;0.28;;;;;;;;;;5051222;28;20115;-91
2022/09/06 03:10:54;;;;;;;0.20;0.20;;;;;;;;;;5033235;28;20044;-87
2022/09/06 03:13:20;;;;;;;0.20;0.20;;;;;;;;;;5033300;28;20029;-87
2022/09/06 03:15:54;;;;;;;0.20;0.20;;;;;;;;;;5049818;28;20095;-85
2022/09/06 03:18:19;;;;;;;0.20;0.20;;;;;;;;;;5032689;28;20108;-85
2022/09/06 03:20:45;;;;;;;0.20;0.20;;;;;;;;;;5050501;28;20429;-84
2022/09/06 03:23:10;;;;;;;0.20;0.20;;;;;;;;;;5050585;28;20444;-84
2022/09/06 03:25:36;;;;;;;0.20;0.20;;;;;;;;;;5031936;28;20538;-86
2022/09/06 03:28:02;;;;;;;0.20;0.20;;;;;;;;;;5031521;28;20446;-83
2022/09/06 03:30:27;;;;;;;0.20;0.20;;;;;;;;;;5050816;28;20021;-84
2022/09/06 03:32:53;;;;;;;0.40;0.40;;;;;;;;;;5049940;28;20387;-83
2022/09/06 03:35:18;;;;;;;0.20;0.20;;;;;;;;;;5050260;28;20029;-83
2022/09/06 03:37:44;;;;;;;0.30;0.30;;;;;;;;;;5050169;28;20039;-86
2022/09/06 03:40:10;;;;;;;0.20;0.20;;;;;;;;;;5050038;28;20057;-85
2022/09/06 03:42:35;;;;;;;0.20;0.20;;;;;;;;;;5050751;28;20400;-84
2022/09/06 03:45:01;;;;;;;0.30;0.30;;;;;;;;;;5049024;28;20048;-84
2022/09/06 03:47:26;;;;;;;0.10;0.10;;;;;;;;;;5049714;28;20090;-83
2022/09/06 03:49:52;;;;;;;0.30;0.30;;;;;;;;;;5031912;28;20083;-83
2022/09/06 03:52:17;;;;;;;6.35;6.03;;;;;;;;;;5049875;28;20388;-85
2022/09/06 03:54:43;;;;;;;0.30;0.30;;;;;;;;;;5052357;28;20480;-86
2022/09/06 03:57:08;;;;;;;0.20;0.20;;;;;;;;;;5032500;28;20039;-86
2022/09/06 03:59:34;;;;;;;0.20;0.20;;;;;;;;;;5050559;28;20120;-86
2022/09/06 04:01:59;;;;;;;0.40;0.40;;;;;;;;;;5049424;28;20032;-87
2022/09/06 04:04:25;;;;;;;0.20;0.20;;;;;;;;;;5032572;28;20042;-82
2022/09/06 04:06:50;;;;;;;0.20;0.20;;;;;;;;;;5047801;28;20495;-84
2022/09/06 04:09:16;;;;;;;0.30;0.30;;;;;;;;;;5049512;28;20056;-83
2022/09/06 04:11:41;;;;;;;0.20;0.20;;;;;;;;;;5049068;28;20033;-82
2022/09/06 04:14:07;;;;;;;0.20;0.20;;;;;;;;;;5049844;28;20028;-81
2022/09/06 04:16:32;;;;;;;0.52;0.40;;;;;;;;;;5032885;28;20036;-87
2022/09/06 04:18:59;;;;;;;0.30;0.30;;;;;;;;;;5049559;28;20021;-80
2022/09/06 04:21:25;;;;;;;0.20;0.20;;;;;;;;;;5049128;28;20111;-80
2022/09/06 04:23:50;;;;;;;0.20;0.20;;;;;;;;;;5048361;28;20450;-79
2022/09/06 04:26:16;;;;;;;0.20;0.20;;;;;;;;;;5031165;28;20573;-77
2022/09/06 04:28:41;;;;;;;1.42;1.35;;;;;;;;;;5031292;28;20435;-80
2022/09/06 04:31:07;;;;;;;0.20;0.20;;;;;;;;;;5048985;28;20388;-79
2022/09/06 04:33:33;;;;;;;0.30;0.30;;;;;;;;;;5048244;28;20045;-80
2022/09/06 04:35:59;;;;;;;0.10;0.10;;;;;;;;;;5048299;28;20789;-80
2022/09/06 04:38:25;;;;;;;0.20;0.20;;;;;;;;;;5049158;28;20030;-82
2022/09/06 04:40:51;;;;;;;0.60;0.60;;;;;;;;;;5053135;28;20032;-80
2022/09/06 04:43:16;;;;;;;0.40;0.40;;;;;;;;;;5049671;28;20040;-82
2022/09/06 04:45:42;;;;;;;0.20;0.20;;;;;;;;;;5051881;28;20051;-86
2022/09/06 04:48:08;;;;;;;0.20;0.20;;;;;;;;;;5053101;28;20044;-88
2022/09/06 04:50:33;;;;;;;0.17;0.17;;;;;;;;;;5053029;28;20183;-86
2022/09/06 04:53:05;;;;;;;0.20;0.20;;;;;;;;;;5020104;28;20040;-85
2022/09/06 04:55:32;;;;;;;0.40;0.40;;;;;;;;;;5014317;28;20370;-88
2022/09/06 04:57:58;;;;;;;0.30;0.30;;;;;;;;;;5032876;28;20037;-87
2022/09/06 05:00:27;;;;;;;0.20;0.20;;;;;;;;;;5001778;28;20720;-81
2022/09/06 05:02:53;;;;;;;1.05;1.05;;;;;;;;;;5052242;28;20075;-82
2022/09/06 05:05:19;;;;;;;0.28;0.28;;;;;;;;;;5051460;28;20020;-80
2022/09/06 05:07:45;;;;;;;0.22;0.22;;;;;;;;;;5051040;28;20539;-78
2022/09/06 05:10:11;;;;;;;0.20;0.20;;;;;;;;;;5049558;28;20113;-80
2022/09/06 05:12:36;;;;;;;0.20;0.20;;;;;;;;;;5049411;28;20029;-83
2022/09/06 05:15:02;;;;;;;0.20;0.20;;;;;;;;;;5051831;28;20134;-81
2022/09/06 05:17:27;;;;;;;0.30;0.30;;;;;;;;;;5050213;28;20071;-79
2022/09/06 05:19:53;;;;;;;0.28;0.28;;;;;;;;;;5052572;28;20019;-79
2022/09/06 05:22:18;;;;;;;0.20;0.20;;;;;;;;;;5052195;28;20082;-79
2022/09/06 05:24:45;;;;;;;1.13;1.13;;;;;;;;;;5033140;28;20442;-80
2022/09/06 05:27:11;;;;;;;0.20;0.20;;;;;;;;;;5051683;28;20041;-79
2022/09/06 05:29:37;;;;;;;0.20;0.20;;;;;;;;;;5051555;28;20052;-80
2022/09/06 05:32:03;;;;;;;0.22;0.22;;;;;;;;;;5051022;28;20511;-80
2022/09/06 05:34:28;;;;;;;0.22;0.22;;;;;;;;;;5051973;28;20423;-80
2022/09/06 05:36:54;;;;;;;0.20;0.20;;;;;;;;;;5052207;28;20041;-87
2022/09/06 05:39:20;;;;;;;0.28;0.28;;;;;;;;;;5050983;28;20514;-78
2022/09/06 05:41:46;;;;;;;0.50;0.50;;;;;;;;;;5051339;28;20032;-83
2022/09/06 05:44:12;;;;;;;0.20;0.20;;;;;;;;;;5050625;28;20483;-82
2022/09/06 05:46:44;;;;;;;0.30;0.30;;;;;;;;;;5050375;28;20036;-82
2022/09/06 05:49:11;;;;;;;0.20;0.20;;;;;;;;;;5050201;28;20025;-76
2022/09/06 05:51:36;;;;;;;0.20;0.20;;;;;;;;;;5031449;28;20230;-77
2022/09/06 05:54:02;;;;;;;0.20;0.20;;;;;;;;;;5049955;28;20445;-75
2022/09/06 05:56:27;;;;;;;2.78;2.67;;;;;;;;;;5025659;28;20420;-75
2022/09/06 05:58:53;;;;;;;0.38;0.38;;;;;;;;;;5050115;28;20025;-76
2022/09/06 06:01:22;;;;;;;0.20;0.20;;;;;;;;;;5047461;28;20032;-77
2022/09/06 06:03:56;;;;;;;0.17;0.17;;;;;;;;;;5051407;28;20147;-76
2022/09/06 06:06:22;;;;;;;0.20;0.20;;;;;;;;;;5031772;28;20080;-76
2022/09/06 06:08:48;;;;;;;0.10;0.10;;;;;;;;;;5051171;28;20069;-76
2022/09/06 06:11:13;;;;;;;0.20;0.20;;;;;;;;;;5048491;28;20075;-77
2022/09/06 06:13:39;;;;;;;4.75;0.95;;;;;;;;;;5050413;28;20017;-75
2022/09/06 06:16:06;;;;;;;0.30;0.30;;;;;;;;;;5049319;28;20032;-76
2022/09/06 06:18:32;;;;;;;0.80;0.80;;;;;;;;;;5049162;28;20047;-76
2022/09/06 06:21:26;;;;;;;0.20;0.20;;;;;;;;;;5014626;28;20041;-75
2022/09/06 06:23:53;;;;;;;0.30;0.30;;;;;;;;;;5043575;28;20049;-74
2022/09/06 06:26:18;;;;;;;0.30;0.30;;;;;;;;;;5047415;28;20596;-75
2022/09/06 06:28:44;;;;;;;0.30;0.30;;;;;;;;;;5047874;28;20255;-76
2022/09/06 06:31:10;;;;;;;0.20;0.20;;;;;;;;;;5048259;28;20044;-77
2022/09/06 06:33:36;;;;;;;0.30;0.30;;;;;;;;;;5030439;28;20025;-77
2022/09/06 06:36:06;;;;;;;0.40;0.40;;;;;;;;;;5048668;28;20032;-76
2022/09/06 06:38:36;;;;;;;0.20;0.20;;;;;;;;;;5050032;28;20029;-76
2022/09/06 06:41:02;;;;;;;0.20;0.20;;;;;;;;;;5048072;28;20060;-76
2022/09/06 06:43:28;;;;;;;0.75;0.75;;;;;;;;;;5035232;28;20025;-76
2022/09/06 06:45:54;;;;;;;0.20;0.20;;;;;;;;;;5011315;28;20495;-76
2022/09/06 06:48:19;;;;;;;0.20;0.20;;;;;;;;;;5010637;28;20064;-76
2022/09/06 06:50:45;;;;;;;0.20;0.20;;;;;;;;;;5028642;28;20040;-76
2022/09/06 06:53:10;;;;;;;0.40;0.40;;;;;;;;;;5029472;28;20026;-76
2022/09/06 06:55:36;;;;;;;0.98;0.98;;;;;;;;;;5028926;28;20111;-76
2022/09/06 06:58:02;;;;;;;0.25;0.25;;;;;;;;;;5029470;28;20176;-76
2022/09/06 07:00:27;;;;;;;0.30;0.30;;;;;;;;;;5030293;28;20030;-76
2022/09/06 07:02:54;;;;;;;0.20;0.20;;;;;;;;;;5030617;28;20021;-76
2022/09/06 07:05:20;;;;;;;0.82;0.82;;;;;;;;;;5029001;28;20403;-75
2022/09/06 07:07:46;;;;;;;9.65;9.18;;;;;;;;;;5029672;28;20477;-76
2022/09/06 07:10:11;;;;;;;0.25;0.25;;;;;;;;;;5030531;28;20029;-75
2022/09/06 07:12:37;;;;;;;0.30;0.30;;;;;;;;;;5030268;28;20052;-76
2022/09/06 07:15:02;;;;;;;0.32;0.32;;;;;;;;;;5030108;28;20080;-75
2022/09/06 07:17:28;;;;;;;0.30;0.30;;;;;;;;;;5012428;28;20040;-75
2022/09/06 07:19:53;;;;;;;0.45;0.45;;;;;;;;;;5030631;28;20056;-76
2022/09/06 07:22:19;;;;;;;0.20;0.20;;;;;;;;;;5012842;28;20022;-74
2022/09/06 07:24:44;;;;;;;0.30;0.30;;;;;;;;;;5012183;28;20615;-74
2022/09/06 07:27:10;;;;;;;1.05;1.05;;;;;;;;;;5029981;28;20041;-75
2022/09/06 07:29:38;;;;;;;0.30;0.30;;;;;;;;;;5041052;28;20021;-76
2022/09/06 07:32:04;;;;;;;0.30;0.30;;;;;;;;;;5049856;28;20021;-75
2022/09/06 07:34:29;;;;;;;0.65;0.65;;;;;;;;;;5049872;28;20106;-75
2022/09/06 07:36:55;;;;;;;0.40;0.40;;;;;;;;;;5049565;28;20041;-74
2022/09/06 07:39:20;;;;;;;0.30;0.30;;;;;;;;;;5049709;28;20025;-76
2022/09/06 07:41:46;;;;;;;0.30;0.30;;;;;;;;;;5049291;28;20032;-76
2022/09/06 07:44:11;;;;;;;0.30;0.30;;;;;;;;;;5049427;28;20075;-76
2022/09/06 07:46:37;;;;;;;0.32;0.32;;;;;;;;;;5049741;28;20120;-75
2022/09/06 07:49:03;;;;;;;0.40;0.40;;;;;;;;;;5049211;28;20066;-75
2022/09/06 07:51:28;;;;;;;0.70;0.70;;;;;;;;;;5049068;28;20029;-74
2022/09/06 07:53:54;;;;;;;0.50;0.50;;;;;;;;;;5049310;28;20025;-75
2022/09/06 07:56:21;;;;;;;0.30;0.30;;;;;;;;;;5031747;28;20037;-76
2022/09/06 07:58:47;;;;;;;0.30;0.30;;;;;;;;;;5049212;28;20033;-76
2022/09/06 08:01:35;;;;;;;0.50;0.50;;;;;;;;;;5050123;28;20025;-76
2022/09/06 08:04:02;;;;;;;0.40;0.40;;;;;;;;;;5018532;28;20056;-77
2022/09/06 08:06:28;;;;;;;1.88;1.77;;;;;;;;;;5048756;28;20120;-74
2022/09/06 08:08:54;;;;;;;0.30;0.30;;;;;;;;;;5049674;28;20040;-74
2022/09/06 08:11:20;;;;;;;0.70;0.70;;;;;;;;;;5048973;28;20025;-75
2022/09/06 08:13:50;;;;;;;0.38;0.38;;;;;;;;;;5048671;28;20719;-74
2022/09/06 08:16:16;;;;;;;0.60;0.60;;;;;;;;;;5031047;28;20024;-74
2022/09/06 08:18:41;;;;;;;0.57;0.50;;;;;;;;;;5048886;28;20178;-76
2022/09/06 08:21:14;;;;;;;0.30;0.30;;;;;;;;;;5048990;28;20465;-75
2022/09/06 08:23:43;;;;;;;0.20;0.20;;;;;;;;;;5047690;28;20021;-75
2022/09/06 08:26:09;;;;;;;0.30;0.30;;;;;;;;;;5049418;28;20044;-75
2022/09/06 08:28:34;;;;;;;0.50;0.50;;;;;;;;;;5049108;28;20632;-73
2022/09/06 08:31:10;;;;;;;0.40;0.40;;;;;;;;;;5030475;28;20032;-73
2022/09/06 08:33:37;;;;;;;0.32;0.32;;;;;;;;;;5030813;28;20587;-76
2022/09/06 08:36:03;;;;;;;0.30;0.30;;;;;;;;;;5047115;28;20040;-76
2022/09/06 08:38:29;;;;;;;0.47;0.47;;;;;;;;;;5048691;28;20384;-75
2022/09/06 08:41:04;;;;;;;0.40;0.40;;;;;;;;;;5031391;28;20033;-75
2022/09/06 08:43:30;;;;;;;0.50;0.50;;;;;;;;;;5048852;28;20062;-75
2022/09/06 08:45:55;;;;;;;0.77;0.77;;;;;;;;;;5030981;28;20040;-75
2022/09/06 08:48:23;;;;;;;0.40;0.40;;;;;;;;;;5048850;28;20036;-75
2022/09/06 08:50:56;;;;;;;0.40;0.40;;;;;;;;;;5049078;28;20040;-75
2022/09/06 08:53:21;;;;;;;0.40;0.40;;;;;;;;;;5049030;28;20784;-75
2022/09/06 08:55:51;;;;;;;0.40;0.40;;;;;;;;;;5031895;28;20076;-75
2022/09/06 08:58:23;;;;;;;0.40;0.40;;;;;;;;;;5029120;28;20034;-76
2022/09/06 09:00:57;;;;;;;0.50;0.50;;;;;;;;;;5041022;28;20317;-76
2022/09/06 09:03:30;;;;;;;0.73;0.73;;;;;;;;;;5048767;28;20104;-76
2022/09/06 09:05:56;;;;;;;0.40;0.40;;;;;;;;;;5048443;28;20479;-76
2022/09/06 09:08:21;;;;;;;0.40;0.40;;;;;;;;;;5030670;28;20044;-76
2022/09/06 09:10:48;;;;;;;0.40;0.40;;;;;;;;;;5048841;28;20120;-76
2022/09/06 09:13:23;;;;;;;0.40;0.40;;;;;;;;;;5048548;28;20079;-76
2022/09/06 09:15:48;;;;;;;0.60;0.60;;;;;;;;;;5048954;28;20035;-76
2022/09/06 09:18:18;;;;;;;0.47;0.47;;;;;;;;;;5049061;28;20116;-75
2022/09/06 09:20:44;;;;;;;0.40;0.40;;;;;;;;;;5048521;28;20033;-76
2022/09/06 09:23:09;;;;;;;0.40;0.40;;;;;;;;;;5048370;28;20029;-75
2022/09/06 09:25:35;;;;;;;0.50;0.50;;;;;;;;;;5048366;28;20032;-76
2022/09/06 09:28:01;;;;;;;0.40;0.40;;;;;;;;;;5052531;28;20033;-74
2022/09/06 09:30:43;;;;;;;0.52;0.52;;;;;;;;;;5052180;28;20111;-76
2022/09/06 09:33:29;;;;;;;0.50;0.50;;;;;;;;;;5052226;28;20446;-75
2022/09/06 09:35:57;;;;;;;0.50;0.50;;;;;;;;;;5034983;28;20045;-75
2022/09/06 09:38:25;;;;;;;0.40;0.40;;;;;;;;;;5051628;28;20537;-75
2022/09/06 09:40:50;;;;;;;0.40;0.40;;;;;;;;;;5052309;28;20040;-75
2022/09/06 09:43:16;;;;;;;0.50;0.50;;;;;;;;;;5051778;28;20029;-76
2022/09/06 09:45:42;;;;;;;0.75;0.75;;;;;;;;;;5051970;28;20133;-74
2022/09/06 09:48:19;;;;;;;0.93;0.60;;;;;;;;;;5033913;28;20033;-75
2022/09/06 09:50:44;;;;;;;0.50;0.50;;;;;;;;;;5033940;28;20094;-74
2022/09/06 09:53:11;;;;;;;0.50;0.50;;;;;;;;;;5051778;28;20104;-74
2022/09/06 09:55:37;;;;;;;3.53;3.28;;;;;;;;;;5051619;28;20411;-74
2022/09/06 09:58:03;;;;;;;0.50;0.50;;;;;;;;;;5052038;28;20087;-75
2022/09/06 10:00:41;;;;;;;0.30;0.30;;;;;;;;;;5051607;28;20033;-75
2022/09/06 10:03:26;;;;;;;0.40;0.40;;;;;;;;;;5051504;28;20029;-75
2022/09/06 10:05:59;;;;;;;1.15;1.10;;;;;;;;;;5051571;28;20021;-74
2022/09/06 10:08:26;;;;;;;0.50;0.50;;;;;;;;;;5033614;28;20510;-74
2022/09/06 10:10:51;;;;;;;1.95;1.05;;;;;;;;;;5051531;28;20013;-74
2022/09/06 10:13:21;;;;;;;0.40;0.40;;;;;;;;;;5051328;28;20033;-76
2022/09/06 10:15:48;;;;;;;0.40;0.40;;;;;;;;;;5033193;28;20025;-76
2022/09/06 10:18:19;;;;;;;1.73;1.52;;;;;;;;;;5051057;28;20457;-76
2022/09/06 10:20:45;;;;;;;0.40;0.40;;;;;;;;;;5051241;28;20029;-75
2022/09/06 10:23:23;;;;;;;0.82;0.68;;;;;;;;;;5033696;28;20040;-75
2022/09/06 10:25:57;;;;;;;0.47;0.47;;;;;;;;;;5051281;28;20408;-75
2022/09/06 10:28:28;;;;;;;0.40;0.40;;;;;;;;;;5051254;28;20051;-76
2022/09/06 10:31:22;;;;;;;0.40;0.40;;;;;;;;;;5051099;28;20029;-75
2022/09/06 10:33:55;;;;;;;0.55;0.55;;;;;;;;;;5051252;28;20368;-75
2022/09/06 10:36:47;;;;;;;0.70;0.70;;;;;;;;;;5032586;28;20100;-75
2022/09/06 10:39:31;;;;;;;0.40;0.40;;;;;;;;;;5046685;28;20067;-75
2022/09/06 10:42:12;;;;;;;0.88;0.88;;;;;;;;;;5051365;28;20363;-75
2022/09/06 10:44:56;;;;;;;0.40;0.40;;;;;;;;;;5050405;28;20029;-75
2022/09/06 10:47:22;;;;;;;0.77;0.73;;;;;;;;;;5050687;28;20506;-74
2022/09/06 10:49:52;;;;;;;1.08;0.90;;;;;;;;;;5050534;28;20098;-74
2022/09/06 10:52:27;;;;;;;2.92;1.77;;;;;;;;;;5050866;28;20029;-75
2022/09/06 10:54:54;;;;;;;1.02;1.02;;;;;;;;;;5050423;28;20388;-74
2022/09/06 10:57:21;;;;;;;1.50;1.05;;;;;;;;;;5050463;28;20029;-74
2022/09/06 10:59:50;;;;;;;0.55;0.55;;;;;;;;;;5050326;28;20024;-76
2022/09/06 11:02:18;;;;;;;1.27;1.17;;;;;;;;;;5032648;28;20061;-75
2022/09/06 11:04:45;;;;;;;0.82;0.75;;;;;;;;;;5050450;28;20029;-75
2022/09/06 11:07:30;;;;;;;1.42;1.13;;;;;;;;;;5032159;28;20049;-74
2022/09/06 11:09:59;;;;;;;0.50;0.50;;;;;;;;;;5050084;28;20041;-75
2022/09/06 11:12:24;;;;;;;1.45;1.10;;;;;;;;;;5032485;28;20071;-75
2022/09/06 11:14:50;;;;;;;1.95;0.75;;;;;;;;;;5050309;28;20404;-75
2022/09/06 11:17:30;;;;;;;0.50;0.50;;;;;;;;;;5050116;28;20041;-76
2022/09/06 11:20:10;;;;;;;0.40;0.40;;;;;;;;;;5032731;28;20104;-74
2022/09/06 11:22:39;;;;;;;0.55;0.55;;;;;;;;;;5050496;28;20033;-75
2022/09/06 11:25:08;;;;;;;0.80;0.80;;;;;;;;;;5049981;28;20025;-75
2022/09/06 11:27:35;;;;;;;0.85;0.75;;;;;;;;;;5049691;28;20083;-74
2022/09/06 11:30:01;;;;;;;1.20;1.13;;;;;;;;;;5049601;28;20036;-75
2022/09/06 11:32:49;;;;;;;0.47;0.47;;;;;;;;;;5050045;28;20029;-75
2022/09/06 11:35:30;;;;;;;0.50;0.50;;;;;;;;;;5049889;28;20029;-75
2022/09/06 11:38:01;;;;;;;1.73;1.00;;;;;;;;;;5050182;28;20033;-74
2022/09/06 11:40:28;;;;;;;0.55;0.55;;;;;;;;;;5031769;28;20079;-74
2022/09/06 11:42:54;;;;;;;0.52;0.52;;;;;;;;;;5049542;28;20036;-74
2022/09/06 11:45:38;;;;;;;3.70;2.05;;;;;;;;;;5049846;28;20357;-74
2022/09/06 11:48:22;;;;;;;0.93;0.90;;;;;;;;;;5048750;28;20045;-73
2022/09/06 11:50:58;;;;;;;0.40;0.40;;;;;;;;;;5049617;28;20021;-75
2022/09/06 11:53:35;;;;;;;0.82;0.75;;;;;;;;;;5031602;28;20032;-75
2022/09/06 11:56:00;;;;;;;67.55;3.35;;;;;;;;;;5049344;28;20025;-75
2022/09/06 11:58:31;;;;;;;0.77;0.77;;;;;;;;;;5049650;28;20067;-74
2022/09/06 12:01:12;;;;;;;0.90;0.82;;;;;;;;;;5049621;28;20025;-73
2022/09/06 12:03:40;;;;;;;0.60;0.60;;;;;;;;;;5049502;28;20037;-74
2022/09/06 12:06:14;;;;;;;0.45;0.45;;;;;;;;;;5046439;28;20048;-74
2022/09/06 12:08:39;;;;;;;0.52;0.52;;;;;;;;;;5047445;28;20044;-74
2022/09/06 12:11:26;;;;;;;0.77;0.70;;;;;;;;;;5047441;28;20041;-73
2022/09/06 12:13:51;;;;;;;0.50;0.50;;;;;;;;;;5029569;28;20033;-74
2022/09/06 12:16:17;;;;;;;4.15;1.45;;;;;;;;;;5047426;28;20052;-74
2022/09/06 12:18:45;;;;;;;0.63;0.63;;;;;;;;;;5046977;28;20472;-74
2022/09/06 12:21:45;;;;;;;0.50;0.50;;;;;;;;;;5029717;28;20120;-73
2022/09/06 12:24:49;;;;;;;0.80;0.80;;;;;;;;;;5003391;28;20044;-73
2022/09/06 12:27:16;;;;;;;2.00;1.17;;;;;;;;;;4964761;28;20047;-74
2022/09/06 12:30:07;;;;;;;0.68;0.68;;;;;;;;;;4965082;28;20093;-73
2022/09/06 12:32:35;;;;;;;0.80;0.80;;;;;;;;;;5002658;28;20037;-73
2022/09/06 12:35:02;;;;;;;4.40;1.17;;;;;;;;;;5026944;28;20033;-73
2022/09/06 12:37:32;;;;;;;0.50;0.50;;;;;;;;;;5027089;28;20464;-73
2022/09/06 12:39:58;;;;;;;1.83;1.02;;;;;;;;;;4992882;28;20041;-73
2022/09/06 12:42:25;;;;;;;0.50;0.50;;;;;;;;;;5026949;28;20033;-73
2022/09/06 12:44:51;;;;;;;0.50;0.50;;;;;;;;;;5027381;28;20112;-73
2022/09/06 12:47:28;;;;;;;1.70;1.08;;;;;;;;;;5026787;28;20029;-73
2022/09/06 12:50:12;;;;;;;0.50;0.50;;;;;;;;;;5026768;28;20492;-73
2022/09/06 12:52:51;;;;;;;1.13;1.00;;;;;;;;;;5008903;28;20044;-74
2022/09/06 12:55:16;;;;;;;;;;;;;;;;;;5027090;28;20037;-74
2022/09/06 12:57:52;;;;;;;1.13;1.03;;;;;;;;;;5027080;28;20220;-73
2022/09/06 13:00:19;;;;;;;0.98;0.68;;;;;;;;;;5028616;28;20065;-73
2022/09/06 13:02:50;;;;;;;0.40;0.40;;;;;;;;;;5044830;28;20040;-74
2022/09/06 13:05:16;;;;;;;0.60;0.60;;;;;;;;;;5050526;28;20120;-74
2022/09/06 13:07:44;;;;;;;0.73;0.73;;;;;;;;;;5050178;28;20532;-74
2022/09/06 13:10:12;;;;;;;0.40;0.40;;;;;;;;;;5050992;28;20025;-72
2022/09/06 13:12:39;;;;;;;5.18;0.82;;;;;;;;;;5032879;28;20099;-72
2022/09/06 13:15:12;;;;;;;1.20;1.08;;;;;;;;;;5050590;28;20025;-73
2022/09/06 13:17:38;;;;;;;0.55;0.55;;;;;;;;;;5050125;28;20095;-72
2022/09/06 13:20:12;;;;;;;0.82;0.77;;;;;;;;;;5032586;28;20029;-88
2022/09/06 13:22:40;;;;;;;1.55;1.45;;;;;;;;;;5035178;28;20468;-87
2022/09/06 13:25:12;;;;;;;4.05;1.70;;;;;;;;;;5034460;28;20396;-87
2022/09/06 13:27:44;;;;;;;4.50;1.42;;;;;;;;;;5051796;28;20033;-86
2022/09/06 13:30:27;;;;;;;3.50;1.15;;;;;;;;;;5051241;28;20043;-88
2022/09/06 13:32:53;;;;;;;0.50;0.50;;;;;;;;;;5033957;28;20036;-87
2022/09/06 13:35:22;;;;;;;2.20;0.90;;;;;;;;;;5052191;28;20564;-87
2022/09/06 13:37:48;;;;;;;3.47;2.13;;;;;;;;;;5051834;28;20048;-87
2022/09/06 13:40:33;;;;;;;1.48;0.60;;;;;;;;;;5051501;28;20029;-86
2022/09/06 13:42:59;;;;;;;0.63;0.63;;;;;;;;;;5052428;28;20080;-84
2022/09/06 13:45:26;;;;;;;0.73;0.73;;;;;;;;;;5052530;28;20484;-88
2022/09/06 13:47:52;;;;;;;0.60;0.60;;;;;;;;;;5052688;28;20040;-89
2022/09/06 13:50:19;;;;;;;0.55;0.55;;;;;;;;;;5052096;28;20361;-85
2022/09/06 13:52:47;;;;;;;2.80;1.88;;;;;;;;;;5050787;28;20037;-85
2022/09/06 13:55:14;;;;;;;0.98;0.85;;;;;;;;;;5033607;28;20025;-85
2022/09/06 13:57:40;;;;;;;1.13;1.02;;;;;;;;;;5034196;28;20029;-89
2022/09/06 14:00:07;;;;;;;0.95;0.40;;;;;;;;;;5051037;28;20052;-87
2022/09/06 14:02:32;;;;;;;0.40;0.40;;;;;;;;;;5051647;28;20029;-87
2022/09/06 14:04:58;;;;;;;0.82;0.70;;;;;;;;;;5051823;28;20037;-87
2022/09/06 14:07:24;;;;;;;1.48;1.10;;;;;;;;;;5053589;28;20049;-87
2022/09/06 14:09:50;;;;;;;0.30;0.30;;;;;;;;;;5052630;28;20037;-86
2022/09/06 14:12:15;;;;;;;3.05;1.67;;;;;;;;;;5050955;28;20057;-87
2022/09/06 14:14:43;;;;;;;2.05;1.95;;;;;;;;;;5051311;28;20024;-89
2022/09/06 14:17:08;;;;;;;2.05;0.90;;;;;;;;;;5051181;28;20047;-87
2022/09/06 14:19:34;;;;;;;1.17;0.75;;;;;;;;;;5052549;28;20037;-86
2022/09/06 14:22:00;;;;;;;0.30;0.30;;;;;;;;;;5051037;28;20128;-87
2022/09/06 14:24:26;;;;;;;5.15;0.60;;;;;;;;;;5031985;28;20408;-87
2022/09/06 14:26:51;;;;;;;0.40;0.40;;;;;;;;;;5049620;28;20017;-86
2022/09/06 14:29:17;;;;;;;3.05;1.60;;;;;;;;;;5032144;28;20036;-86
2022/09/06 14:31:43;;;;;;;0.75;0.75;;;;;;;;;;5050004;28;20025;-87
2022/09/06 14:34:08;;;;;;;2.05;1.20;;;;;;;;;;5050161;28;20027;-87
2022/09/06 14:36:34;;;;;;;1.13;1.08;;;;;;;;;;5050027;28;20036;-86
2022/09/06 14:39:00;;;;;;;0.45;0.45;;;;;;;;;;5040820;28;20017;-86
2022/09/06 14:41:26;;;;;;;0.50;0.50;;;;;;;;;;5030543;28;20032;-86
2022/09/06 14:43:53;;;;;;;0.30;0.30;;;;;;;;;;5029444;28;20116;-85
2022/09/06 14:46:20;;;;;;;0.32;0.32;;;;;;;;;;5011039;28;20087;-85
2022/09/06 14:48:46;;;;;;;0.65;0.65;;;;;;;;;;5028767;28;20493;-86
2022/09/06 14:51:21;;;;;;;0.88;0.88;;;;;;;;;;5037244;28;20045;-86
2022/09/06 14:53:47;;;;;;;0.40;0.40;;;;;;;;;;5045873;28;20037;-83